Bulutlu
Çoğunlukla bulutlu
Çoğunlukla bulutlu
Bulutlu
Bulutlu
Bulutlu
Bulutlu
(°C)
12°
12°
12°
12°
11°
11°
11°
11°
10°
10°
10°
10°
(°C)
GB
GGB
G
GGD
GGD
GGD
GGD
(km/h)
13-31
12-26
12-26
13-21
13-21
13-22
13-21
(mm)
0
0
0
0
0
0
0
(%)
0
25
0
0
0
0
0

Güneşin açısı

/ 20.1°
sun-icon
UV 2
07:05
18:03
Küçülen ay (245°)
----
08:43

Bordenau (EDDV) için METAR

Zaman Koşullar Sıcaklık/
Çiy noktası
Rüzgar Görünürlük Hava Bulutlar Basınç Değiştir Ham
VFR 12°C / 6°C 190º variable 160º to 230º 7kt 9700m - Scattered Clouds 3300ft
Broken Clouds 4200ft
1004 No Significant change EDDV 011350Z AUTO 19007KT 160V230 9999 SCT033 BKN042 12/06 Q1004 NOSIG
VFR 12°C / 5°C 190º variable 160º to 230º 8kt 9700m - Broken Clouds 3500ft
Broken Clouds 4300ft
1005 No Significant change EDDV 011320Z AUTO 19008KT 160V230 9999 BKN035 BKN043 12/05 Q1005 NOSIG
VFR 12°C / 6°C 220º variable 170º to 260º 6kt 9700m - Scattered Clouds 2900ft
Broken Clouds 3700ft
1005 No Significant change EDDV 011250Z AUTO 22006KT 170V260 9999 SCT029 BKN037 12/06 Q1005 NOSIG
MVFR 12°C / 6°C 220º variable 150º to 270º 7kt 9700m - Broken Clouds 2800ft 1005 No Significant change EDDV 011220Z AUTO 22007KT 150V270 9999 BKN028 12/06 Q1005 NOSIG
MVFR 12°C / 6°C 220º variable 150º to 250º 7kt 9700m - Broken Clouds 2700ft 1005 No Significant change EDDV 011150Z AUTO 22007KT 150V250 9999 BKN027 12/06 Q1005 NOSIG
MVFR 12°C / 6°C 240º variable 190º to 300º 6kt 9700m - Broken Clouds 2700ft 1004 No Significant change EDDV 011120Z AUTO 24006KT 190V300 9999 BKN027 12/06 Q1004 NOSIG
MVFR 11°C / 5°C 230º variable 190º to 260º 7kt 9700m - Broken Clouds 2800ft 1004 No Significant change EDDV 011050Z AUTO 23007KT 190V260 9999 BKN028 11/05 Q1004 NOSIG
VFR 11°C / 5°C 200º variable 160º to 240º 9kt 9700m - Few Clouds 2900ft 1004 No Significant change EDDV 011020Z AUTO 20009KT 160V240 9999 FEW029 11/05 Q1004 NOSIG
VFR 10°C / 5°C 200º variable 160º to 240º 10kt 9700m - Clouds and Visibility OK 1004 No Significant change EDDV 010950Z AUTO 20010KT 160V240 CAVOK 10/05 Q1004 NOSIG
VFR 9°C / 4°C 180º variable 100º to 240º 4kt 9700m - Clouds and Visibility OK 1004 No Significant change EDDV 010920Z AUTO 18004KT 100V240 CAVOK 09/04 Q1004 NOSIG
VFR 9°C / 4°C 150º variable 090º to 180º 7kt 9700m - Clouds and Visibility OK 1004 No Significant change EDDV 010850Z AUTO 15007KT 090V180 CAVOK 09/04 Q1004 NOSIG
VFR 8°C / 3°C 160º variable 120º to 180º 7kt 9700m - Clouds and Visibility OK 1004 No Significant change EDDV 010820Z AUTO 16007KT 120V180 CAVOK 08/03 Q1004 NOSIG
VFR 7°C / 3°C 160º 5kt 9700m - Few Clouds 4800ft 1004 No Significant change EDDV 010750Z AUTO 16005KT 9999 FEW048 07/03 Q1004 NOSIG
VFR 6°C / 3°C 3kt 9700m - Few Clouds 4800ft 1004 No Significant change EDDV 010720Z AUTO VRB03KT 9999 FEW048 06/03 Q1004 NOSIG
VFR 5°C / 2°C 150º variable 110º to 190º 4kt 9700m - Broken Clouds 4500ft 1004 No Significant change EDDV 010650Z AUTO 15004KT 110V190 9999 BKN045 05/02 Q1004 NOSIG
VFR 5°C / 2°C 150º 6kt 9700m - Few Clouds 4300ft 1004 No Significant change EDDV 010620Z AUTO 15006KT 9999 FEW043 05/02 Q1004 NOSIG
VFR 5°C / 2°C 3kt 9700m - Clouds and Visibility OK 1004 No Significant change EDDV 010550Z AUTO VRB03KT CAVOK 05/02 Q1004 NOSIG
VFR 4°C / 2°C 130º variable 090º to 170º 4kt 9700m - Clouds and Visibility OK 1004 No Significant change EDDV 010520Z AUTO 13004KT 090V170 CAVOK 04/02 Q1004 NOSIG
VFR 5°C / 2°C 140º variable 090º to 180º 3kt 9700m - Clouds and Visibility OK 1004 - EDDV 010450Z AUTO 14003KT 090V180 CAVOK 05/02 Q1004
VFR 5°C / 2°C 150º 7kt 9700m - Clouds and Visibility OK 1004 No Significant change EDDV 010420Z AUTO 15007KT CAVOK 05/02 Q1004 NOSIG
VFR 5°C / 2°C 160º 7kt 9700m - Clouds and Visibility OK 1004 No Significant change EDDV 010350Z AUTO 16007KT CAVOK 05/02 Q1004 NOSIG
VFR 5°C / 2°C 160º 6kt 9700m - Clouds and Visibility OK 1004 - EDDV 010320Z AUTO 16006KT CAVOK 05/02 Q1004
VFR 4°C / 1°C 140º variable 100º to 180º 5kt 9700m - Clouds and Visibility OK 1004 - EDDV 010250Z AUTO 14005KT 100V180 CAVOK 04/01 Q1004
VFR 4°C / 1°C 130º variable 090º to 170º 4kt 9700m - Clouds and Visibility OK 1004 - EDDV 010220Z AUTO 13004KT 090V170 CAVOK 04/01 Q1004

VFR

12°C / 6°C

[Daha fazla]
Rüzgar 190º variable 160º to 230º 7kt
Görünürlük 9700m
Hava -
Bulutlar Scattered Clouds 3300ft
Broken Clouds 4200ft
Basınç 1004
Değiştir No Significant change
Ham EDDV 011350Z AUTO 19007KT 160V230 9999 SCT033 BKN042 12/06 Q1004 NOSIG

VFR

12°C / 5°C

[Daha fazla]
Rüzgar 190º variable 160º to 230º 8kt
Görünürlük 9700m
Hava -
Bulutlar Broken Clouds 3500ft
Broken Clouds 4300ft
Basınç 1005
Değiştir No Significant change
Ham EDDV 011320Z AUTO 19008KT 160V230 9999 BKN035 BKN043 12/05 Q1005 NOSIG

VFR

12°C / 6°C

[Daha fazla]
Rüzgar 220º variable 170º to 260º 6kt
Görünürlük 9700m
Hava -
Bulutlar Scattered Clouds 2900ft
Broken Clouds 3700ft
Basınç 1005
Değiştir No Significant change
Ham EDDV 011250Z AUTO 22006KT 170V260 9999 SCT029 BKN037 12/06 Q1005 NOSIG

MVFR

12°C / 6°C

[Daha fazla]
Rüzgar 220º variable 150º to 270º 7kt
Görünürlük 9700m
Hava -
Bulutlar Broken Clouds 2800ft
Basınç 1005
Değiştir No Significant change
Ham EDDV 011220Z AUTO 22007KT 150V270 9999 BKN028 12/06 Q1005 NOSIG

MVFR

12°C / 6°C

[Daha fazla]
Rüzgar 220º variable 150º to 250º 7kt
Görünürlük 9700m
Hava -
Bulutlar Broken Clouds 2700ft
Basınç 1005
Değiştir No Significant change
Ham EDDV 011150Z AUTO 22007KT 150V250 9999 BKN027 12/06 Q1005 NOSIG

MVFR

12°C / 6°C

[Daha fazla]
Rüzgar 240º variable 190º to 300º 6kt
Görünürlük 9700m
Hava -
Bulutlar Broken Clouds 2700ft
Basınç 1004
Değiştir No Significant change
Ham EDDV 011120Z AUTO 24006KT 190V300 9999 BKN027 12/06 Q1004 NOSIG

MVFR

11°C / 5°C

[Daha fazla]
Rüzgar 230º variable 190º to 260º 7kt
Görünürlük 9700m
Hava -
Bulutlar Broken Clouds 2800ft
Basınç 1004
Değiştir No Significant change
Ham EDDV 011050Z AUTO 23007KT 190V260 9999 BKN028 11/05 Q1004 NOSIG

VFR

11°C / 5°C

[Daha fazla]
Rüzgar 200º variable 160º to 240º 9kt
Görünürlük 9700m
Hava -
Bulutlar Few Clouds 2900ft
Basınç 1004
Değiştir No Significant change
Ham EDDV 011020Z AUTO 20009KT 160V240 9999 FEW029 11/05 Q1004 NOSIG

VFR

10°C / 5°C

[Daha fazla]
Rüzgar 200º variable 160º to 240º 10kt
Görünürlük 9700m
Hava -
Bulutlar Clouds and Visibility OK
Basınç 1004
Değiştir No Significant change
Ham EDDV 010950Z AUTO 20010KT 160V240 CAVOK 10/05 Q1004 NOSIG

VFR

9°C / 4°C

[Daha fazla]
Rüzgar 180º variable 100º to 240º 4kt
Görünürlük 9700m
Hava -
Bulutlar Clouds and Visibility OK
Basınç 1004
Değiştir No Significant change
Ham EDDV 010920Z AUTO 18004KT 100V240 CAVOK 09/04 Q1004 NOSIG

VFR

9°C / 4°C

[Daha fazla]
Rüzgar 150º variable 090º to 180º 7kt
Görünürlük 9700m
Hava -
Bulutlar Clouds and Visibility OK
Basınç 1004
Değiştir No Significant change
Ham EDDV 010850Z AUTO 15007KT 090V180 CAVOK 09/04 Q1004 NOSIG

VFR

8°C / 3°C

[Daha fazla]
Rüzgar 160º variable 120º to 180º 7kt
Görünürlük 9700m
Hava -
Bulutlar Clouds and Visibility OK
Basınç 1004
Değiştir No Significant change
Ham EDDV 010820Z AUTO 16007KT 120V180 CAVOK 08/03 Q1004 NOSIG

VFR

7°C / 3°C

[Daha fazla]
Rüzgar 160º 5kt
Görünürlük 9700m
Hava -
Bulutlar Few Clouds 4800ft
Basınç 1004
Değiştir No Significant change
Ham EDDV 010750Z AUTO 16005KT 9999 FEW048 07/03 Q1004 NOSIG

VFR

6°C / 3°C

[Daha fazla]
Rüzgar 3kt
Görünürlük 9700m
Hava -
Bulutlar Few Clouds 4800ft
Basınç 1004
Değiştir No Significant change
Ham EDDV 010720Z AUTO VRB03KT 9999 FEW048 06/03 Q1004 NOSIG

VFR

5°C / 2°C

[Daha fazla]
Rüzgar 150º variable 110º to 190º 4kt
Görünürlük 9700m
Hava -
Bulutlar Broken Clouds 4500ft
Basınç 1004
Değiştir No Significant change
Ham EDDV 010650Z AUTO 15004KT 110V190 9999 BKN045 05/02 Q1004 NOSIG

VFR

5°C / 2°C

[Daha fazla]
Rüzgar 150º 6kt
Görünürlük 9700m
Hava -
Bulutlar Few Clouds 4300ft
Basınç 1004
Değiştir No Significant change
Ham EDDV 010620Z AUTO 15006KT 9999 FEW043 05/02 Q1004 NOSIG

VFR

5°C / 2°C

[Daha fazla]
Rüzgar 3kt
Görünürlük 9700m
Hava -
Bulutlar Clouds and Visibility OK
Basınç 1004
Değiştir No Significant change
Ham EDDV 010550Z AUTO VRB03KT CAVOK 05/02 Q1004 NOSIG

VFR

4°C / 2°C

[Daha fazla]
Rüzgar 130º variable 090º to 170º 4kt
Görünürlük 9700m
Hava -
Bulutlar Clouds and Visibility OK
Basınç 1004
Değiştir No Significant change
Ham EDDV 010520Z AUTO 13004KT 090V170 CAVOK 04/02 Q1004 NOSIG

VFR

5°C / 2°C

[Daha fazla]
Rüzgar 140º variable 090º to 180º 3kt
Görünürlük 9700m
Hava -
Bulutlar Clouds and Visibility OK
Basınç 1004
Değiştir -
Ham EDDV 010450Z AUTO 14003KT 090V180 CAVOK 05/02 Q1004

VFR

5°C / 2°C

[Daha fazla]
Rüzgar 150º 7kt
Görünürlük 9700m
Hava -
Bulutlar Clouds and Visibility OK
Basınç 1004
Değiştir No Significant change
Ham EDDV 010420Z AUTO 15007KT CAVOK 05/02 Q1004 NOSIG

VFR

5°C / 2°C

[Daha fazla]
Rüzgar 160º 7kt
Görünürlük 9700m
Hava -
Bulutlar Clouds and Visibility OK
Basınç 1004
Değiştir No Significant change
Ham EDDV 010350Z AUTO 16007KT CAVOK 05/02 Q1004 NOSIG

VFR

5°C / 2°C

[Daha fazla]
Rüzgar 160º 6kt
Görünürlük 9700m
Hava -
Bulutlar Clouds and Visibility OK
Basınç 1004
Değiştir -
Ham EDDV 010320Z AUTO 16006KT CAVOK 05/02 Q1004

VFR

4°C / 1°C

[Daha fazla]
Rüzgar 140º variable 100º to 180º 5kt
Görünürlük 9700m
Hava -
Bulutlar Clouds and Visibility OK
Basınç 1004
Değiştir -
Ham EDDV 010250Z AUTO 14005KT 100V180 CAVOK 04/01 Q1004

VFR

4°C / 1°C

[Daha fazla]
Rüzgar 130º variable 090º to 170º 4kt
Görünürlük 9700m
Hava -
Bulutlar Clouds and Visibility OK
Basınç 1004
Değiştir -
Ham EDDV 010220Z AUTO 13004KT 090V170 CAVOK 04/01 Q1004

Bordenau (EDDV) için TAF

From till


From till Wind 200º 9kt. Visibility 9700m. Broken Clouds 2500ft.
Becoming from till

Ham: TAF EDDV 011100Z 0112/0212 20009KT 9999 BKN025 BECMG 0116/0118 14005KT

rainNOW: Şimdi Bordenau ve çevresi için yağmur yağıyor (25km yarıçap)

0.0 mm
0.0 mm
0.0 mm
0.0 mm
0.0 mm
0.0 mm
0.0 mm
0.0 mm
0.0 mm
0.0 mm
0.0 mm
0.0 mm

Bordenau için radar ve yağış nowcast

Çise
Hafif
Orta
Ağır
Çok ağır
Dolu

Konum işaretleyicisi Bordenau üzerine yerleştirilir. Bu animasyon, seçilen zaman aralığı için yağış radarının yanı sıra 2h tahminini gösterir. Turuncu çarpılar yıldırımı göstermektedir. Veriler nowcast.de tarafından sağlanmıştır (ABD, Avrupa ve Avustralya'da erişimi mevcuttur). Çiseleyen yağmur veya hafif kar yağışı radarda görünmeyebilir. Yağış yoğunluğu turkuazdan kırmızıya kadar değişen renklerle kodlanmıştır.

Bordenau için şu anki uydu ve yağmur görüntüleri, Almanya

Konum işaretleyici Bordenau üzerine yerleştirilir. [Daha fazla]

Gerçek zamanlı uydu görüntüsü gündüz süresince görülür ışığı gece süresince kızılötesi ışınım ile birleştirir. Gece kızılötesi ışınım sıcaklık farklarını algılayabildiğinden dolayı görüntü karanlık değildir. Ancak düşük bulutları ve sisi yer sıcaklığından ayırmak zordur ve bu nedenle gece boyunca neredeyse görünmez olabilirler. Avrupa için Meteosat uydu görüntüleri gerçek zamanlı olarak her 5 dakikada bir güncellenir. GOES-16/GOES-17 (Kuzey ve Güney Amerika) ve Himawari (Asya) görüntüleri her 10 dakikada bir güncellenir.

Yağış radar ve uydulardan tahmin edilir. Uydulardan elde edilen yağış tahminleri geceleri gündüze göre daha az doğrudur.

© 2024 meteoblue, NOAA Satellites GOES-16 and EUMETSAT. nowcast tarafından sağlanan şimşek verileri.

En başa git
×
Merhaba,
bir reklam engelleyici kullanıyormuşsunuz gibi görünüyor.

Reklam, ücretsiz web sitemizi benzersiz ayrıntı ve doğrulukla sürdürmek için çok önemlidir.

Lütfen reklam engelleyicinizde www.meteoblue.com beyaz listesini beyaz listeye alın veya ürünlerimizden birini satın almayı düşünün:

Zaten bir aboneliğiniz var mı?
O halde lütfen giriş yapın.